Time;durP1;ratioP1;P1;durP2;ratioP2;P2;SDS_P1;SDS_P2;PMS_P1;PMS_P2;Temp;Humidity;BMP_temperature;BMP_pressure;BME280_temperature;BME280_humidity;BME280_pressure;Samples;Min_cycle;Max_cycle;Signal;HPM_P1;HPM_P2
2021/04/16 00:00:51;;;;;;;5.35;4.85;;;-0.20;99.10;;;;;;5012121;28;20252;-55
2021/04/16 00:03:18;;;;;;;4.70;4.38;;;-0.30;99.20;;;;;;5012197;28;20166;-57
2021/04/16 00:05:44;;;;;;;4.85;4.50;;;-0.30;99.20;;;;;;5012111;28;20734;-57
2021/04/16 00:08:16;;;;;;;4.80;4.50;;;-0.40;99.20;;;;;;5011433;28;20169;-55
2021/04/16 00:10:48;;;;;;;4.65;4.25;;;-0.40;99.60;;;;;;5012097;28;20283;-58
2021/04/16 00:13:16;;;;;;;4.35;4.03;;;-0.40;99.40;;;;;;5012260;28;20641;-59
2021/04/16 00:15:43;;;;;;;4.53;4.13;;;-0.40;99.40;;;;;;5010556;28;20185;-56
2021/04/16 00:18:11;;;;;;;4.70;4.30;;;-0.50;99.40;;;;;;5011488;28;20189;-58
2021/04/16 00:20:37;;;;;;;5.03;4.70;;;-0.50;99.40;;;;;;5011815;28;20256;-60
2021/04/16 00:23:04;;;;;;;5.00;4.60;;;-0.50;99.30;;;;;;5012059;28;20198;-58
2021/04/16 00:25:31;;;;;;;4.10;3.80;;;-0.60;99.40;;;;;;5011913;28;20581;-54
2021/04/16 00:27:57;;;;;;;4.55;4.25;;;-0.60;99.40;;;;;;5011811;28;20175;-57
2021/04/16 00:30:26;;;;;;;4.60;4.30;;;-0.60;99.10;;;;;;5011884;28;20603;-57
2021/04/16 00:32:52;;;;;;;5.05;4.75;;;-0.60;99.10;;;;;;5012019;28;20596;-56
2021/04/16 00:35:18;;;;;;;4.23;3.97;;;-0.70;99.40;;;;;;5011911;28;20253;-58
2021/04/16 00:37:43;;;;;;;4.00;3.70;;;-0.60;99.60;;;;;;5011765;28;20662;-55
2021/04/16 00:40:13;;;;;;;4.77;4.37;;;-0.70;99.50;;;;;;5011434;28;20204;-59
2021/04/16 00:42:39;;;;;;;4.65;4.30;;;-0.70;99.60;;;;;;5011728;28;20223;-55
2021/04/16 00:45:06;;;;;;;4.80;4.40;;;-0.70;99.70;;;;;;5011579;28;20212;-58
2021/04/16 00:47:33;;;;;;;3.90;3.65;;;-0.80;99.70;;;;;;5011684;28;20400;-56
2021/04/16 00:50:11;;;;;;;4.38;4.07;;;-0.80;99.80;;;;;;5011583;28;20186;-55
2021/04/16 00:52:37;;;;;;;4.18;3.80;;;-0.80;99.80;;;;;;5011726;28;20631;-59
2021/04/16 00:55:04;;;;;;;4.30;3.90;;;-0.80;99.70;;;;;;5011680;28;20169;-59
2021/04/16 00:57:30;;;;;;;5.10;4.57;;;-0.80;99.70;;;;;;5011488;28;20181;-56
2021/04/16 00:59:57;;;;;;;4.60;4.30;;;-0.80;99.70;;;;;;5011144;28;20575;-54
2021/04/16 01:02:24;;;;;;;4.78;4.47;;;-0.80;99.50;;;;;;5011672;28;20169;-53
2021/04/16 01:04:50;;;;;;;4.47;4.15;;;-0.90;99.40;;;;;;5011403;28;20216;-57
2021/04/16 01:07:18;;;;;;;4.70;4.30;;;-0.80;99.50;;;;;;5011650;28;20166;-58
2021/04/16 01:09:44;;;;;;;6.40;5.20;;;-0.80;99.60;;;;;;5011032;28;20924;-59
2021/04/16 01:12:12;;;;;;;4.97;4.57;;;-0.90;99.70;;;;;;5011426;28;20171;-56
2021/04/16 01:14:40;;;;;;;4.45;4.07;;;-1.00;99.90;;;;;;5011629;28;20508;-54
2021/04/16 01:17:10;;;;;;;5.50;5.00;;;-0.90;99.90;;;;;;5011716;28;20247;-54
2021/04/16 01:20:07;;;;;;;5.07;4.70;;;-1.10;99.60;;;;;;5012797;28;20258;-57
2021/04/16 01:22:41;;;;;;;5.40;4.55;;;-1.00;99.80;;;;;;5015453;28;20227;-57
2021/04/16 01:25:09;;;;;;;4.70;4.45;;;-1.00;99.80;;;;;;5014882;28;20193;-57
2021/04/16 01:27:35;;;;;;;5.97;4.95;;;-1.00;99.60;;;;;;5014975;28;20217;-57
2021/04/16 01:30:11;;;;;;;5.50;5.10;;;-0.90;99.90;;;;;;5014479;28;20196;-56
2021/04/16 01:32:36;;;;;;;4.50;4.30;;;-0.90;99.90;;;;;;5014889;28;20165;-56
2021/04/16 01:35:06;;;;;;;4.53;4.27;;;-0.90;99.80;;;;;;5015206;28;20173;-55
2021/04/16 01:37:31;;;;;;;4.32;4.03;;;-0.90;99.70;;;;;;5014815;28;20180;-54
2021/04/16 01:39:57;;;;;;;4.63;4.00;;;-0.90;99.50;;;;;;5014153;28;20197;-57
2021/04/16 01:42:23;;;;;;;4.57;4.17;;;-0.90;99.40;;;;;;5014723;28;20184;-54
2021/04/16 01:44:49;;;;;;;5.13;4.60;;;-1.00;99.30;;;;;;5014425;28;20645;-56
2021/04/16 01:47:15;;;;;;;4.27;4.00;;;-1.00;99.40;;;;;;5014709;28;20304;-54
2021/04/16 01:49:48;;;;;;;4.72;3.92;;;-1.00;99.40;;;;;;5013986;28;20736;-55
2021/04/16 01:52:21;;;;;;;4.55;4.15;;;-1.10;99.20;;;;;;5014616;28;20173;-56
2021/04/16 01:54:50;;;;;;;3.75;3.55;;;-1.10;99.20;;;;;;5014667;28;20533;-56
2021/04/16 01:57:28;;;;;;;3.35;3.10;;;-1.10;99.30;;;;;;5014351;28;20660;-60
2021/04/16 01:59:54;;;;;;;4.18;3.88;;;-1.20;99.40;;;;;;5013863;28;20631;-60
2021/04/16 02:02:26;;;;;;;4.13;3.83;;;-1.20;99.60;;;;;;5014165;28;20280;-59
2021/04/16 02:04:52;;;;;;;3.63;3.40;;;-1.20;99.70;;;;;;5014279;28;20416;-55
2021/04/16 02:07:18;;;;;;;4.20;4.00;;;-1.20;99.80;;;;;;5014205;28;20527;-58
2021/04/16 02:09:43;;;;;;;4.50;4.10;;;-1.20;99.60;;;;;;5013809;28;20467;-56
2021/04/16 02:12:12;;;;;;;4.57;4.17;;;-1.30;99.60;;;;;;5014134;28;20446;-54
2021/04/16 02:14:37;;;;;;;4.13;3.92;;;-1.30;99.50;;;;;;5014028;28;20193;-54
2021/04/16 02:17:10;;;;;;;4.83;4.53;;;-1.30;99.30;;;;;;5014014;28;20212;-57
2021/04/16 02:19:36;;;;;;;4.05;3.85;;;-1.30;99.40;;;;;;5013629;28;20559;-56
2021/04/16 02:22:05;;;;;;;3.97;3.72;;;-1.30;99.50;;;;;;5013961;28;20516;-56
2021/04/16 02:24:31;;;;;;;4.00;3.70;;;-1.40;99.40;;;;;;5013869;28;20180;-55
2021/04/16 02:26:56;;;;;;;3.93;3.57;;;-1.30;99.50;;;;;;5013809;28;20173;-58
2021/04/16 02:29:22;;;;;;;4.23;3.93;;;-1.30;99.40;;;;;;5013330;28;20185;-54
2021/04/16 02:31:49;;;;;;;5.10;4.13;;;-1.40;99.60;;;;;;5013115;28;20740;-56
2021/04/16 02:34:22;;;;;;;3.65;3.42;;;-1.40;99.40;;;;;;5013824;28;20499;-54
2021/04/16 02:36:49;;;;;;;5.22;4.53;;;-1.40;99.30;;;;;;5013779;28;20252;-56
2021/04/16 02:39:15;;;;;;;7.13;4.13;;;-1.40;99.30;;;;;;5013377;28;20569;-54
2021/04/16 02:41:41;;;;;;;5.20;4.80;;;-1.50;99.50;;;;;;5013719;28;20227;-56
2021/04/16 02:44:07;;;;;;;5.95;4.28;;;-1.50;99.70;;;;;;5013571;28;20168;-54
2021/04/16 02:46:33;;;;;;;5.23;4.93;;;-1.40;99.80;;;;;;5013596;28;20692;-54
2021/04/16 02:48:59;;;;;;;4.73;4.37;;;-1.50;99.90;;;;;;5013308;28;20420;-54
2021/04/16 02:51:25;;;;;;;5.50;5.03;;;-1.40;99.70;;;;;;5013532;28;20408;-54
2021/04/16 02:53:51;;;;;;;5.07;4.77;;;-1.40;99.80;;;;;;5013444;28;20660;-54
2021/04/16 02:56:16;;;;;;;4.80;4.50;;;-1.50;99.80;;;;;;5013340;28;20645;-54
2021/04/16 02:58:42;;;;;;;5.10;4.70;;;-1.50;99.70;;;;;;5012799;28;20179;-56
2021/04/16 03:01:07;;;;;;;4.93;4.53;;;-1.60;99.70;;;;;;5013303;28;20201;-55
2021/04/16 03:03:35;;;;;;;5.27;4.63;;;-1.50;99.90;;;;;;5013202;28;20219;-55
2021/04/16 03:06:01;;;;;;;6.38;4.18;;;-1.70;99.60;;;;;;5013201;28;20204;-54
2021/04/16 03:08:27;;;;;;;6.15;5.65;;;-1.70;99.80;;;;;;5012790;28;20168;-55
2021/04/16 03:10:52;;;;;;;4.90;4.50;;;-1.70;99.80;;;;;;5014218;28;20193;-59
2021/04/16 03:13:18;;;;;;;4.50;4.10;;;-1.80;99.60;;;;;;5013208;28;20654;-60
2021/04/16 03:15:44;;;;;;;5.70;5.07;;;-1.80;99.50;;;;;;5013572;28;20204;-60
2021/04/16 03:18:10;;;;;;;4.38;4.07;;;-1.90;99.70;;;;;;5013084;28;20408;-59
2021/04/16 03:20:36;;;;;;;4.03;3.83;;;-1.80;99.70;;;;;;5013153;28;20250;-59
2021/04/16 03:23:02;;;;;;;5.20;4.70;;;-1.80;99.80;;;;;;5013238;28;20177;-60
2021/04/16 03:25:27;;;;;;;5.30;4.43;;;-1.80;99.90;;;;;;5013050;28;20180;-60
2021/04/16 03:27:54;;;;;;;5.03;4.57;;;-1.80;99.80;;;;;;5013066;28;20177;-59
2021/04/16 03:30:24;;;;;;;5.15;4.00;;;-1.80;99.90;;;;;;5012715;28;20234;-59
2021/04/16 03:32:50;;;;;;;4.88;4.47;;;-1.80;99.90;;;;;;5012865;28;20255;-60
2021/04/16 03:35:16;;;;;;;4.35;4.05;;;-1.90;99.80;;;;;;5012931;28;20260;-60
2021/04/16 03:37:42;;;;;;;6.30;5.70;;;-1.90;99.90;;;;;;5012845;28;20258;-59
2021/04/16 03:40:10;;;;;;;4.87;4.57;;;-1.80;99.80;;;;;;5012385;28;20236;-60
2021/04/16 03:42:35;;;;;;;4.70;3.95;;;-1.90;99.70;;;;;;5011786;28;20561;-59
2021/04/16 03:45:03;;;;;;;7.20;5.67;;;-1.80;99.70;;;;;;5012803;28;20165;-60
2021/04/16 03:47:29;;;;;;;4.35;3.95;;;-1.80;99.80;;;;;;5012770;28;20161;-60
2021/04/16 03:49:55;;;;;;;5.63;5.20;;;-1.80;99.70;;;;;;5012175;28;20730;-60
2021/04/16 03:52:25;;;;;;;5.27;4.83;;;-1.80;99.70;;;;;;5013053;28;20251;-60
2021/04/16 03:54:51;;;;;;;5.28;4.78;;;-1.80;99.60;;;;;;5012496;28;20188;-60
2021/04/16 03:57:18;;;;;;;5.30;5.00;;;-1.80;99.40;;;;;;5012803;28;20174;-59
2021/04/16 03:59:44;;;;;;;3.83;3.63;;;-1.80;99.30;;;;;;5011948;28;20196;-60
2021/04/16 04:02:10;;;;;;;4.13;3.93;;;-1.90;99.20;;;;;;5012659;28;20169;-59
2021/04/16 04:04:35;;;;;;;5.13;4.83;;;-1.90;99.30;;;;;;5012487;28;20472;-60
2021/04/16 04:07:01;;;;;;;4.63;4.37;;;-1.90;99.60;;;;;;5012455;28;20181;-60
2021/04/16 04:09:26;;;;;;;4.67;4.27;;;-1.90;99.70;;;;;;5011782;28;20203;-60
2021/04/16 04:11:52;;;;;;;5.43;4.40;;;-1.80;99.80;;;;;;5012470;28;20259;-60
2021/04/16 04:14:18;;;;;;;4.80;4.40;;;-1.90;99.60;;;;;;5012241;28;20181;-60
2021/04/16 04:16:52;;;;;;;5.78;4.00;;;-1.90;99.60;;;;;;5012570;28;20643;-60
2021/04/16 04:19:19;;;;;;;4.20;3.80;;;-2.00;99.60;;;;;;5011709;28;20192;-59
2021/04/16 04:21:46;;;;;;;4.55;4.10;;;-2.10;99.60;;;;;;5012674;28;20211;-61
2021/04/16 04:24:12;;;;;;;4.65;4.13;;;-2.10;99.80;;;;;;5013032;28;20177;-59
2021/04/16 04:26:37;;;;;;;7.70;5.60;;;-2.00;99.90;;;;;;5012831;28;20240;-61
2021/04/16 04:29:03;;;;;;;3.87;3.57;;;-2.00;99.90;;;;;;5012340;28;20237;-59
2021/04/16 04:31:29;;;;;;;4.93;4.50;;;-1.90;99.90;;;;;;5012699;28;20173;-61
2021/04/16 04:33:54;;;;;;;4.40;4.10;;;-2.00;99.90;;;;;;5012642;28;20546;-60
2021/04/16 04:36:20;;;;;;;4.63;4.33;;;-2.00;99.90;;;;;;5012355;28;20664;-61
2021/04/16 04:38:49;;;;;;;4.53;4.13;;;-2.00;99.90;;;;;;5012128;28;20189;-60
2021/04/16 04:41:14;;;;;;;5.22;4.75;;;-1.90;99.90;;;;;;5012448;28;20572;-60
2021/04/16 04:43:40;;;;;;;4.10;3.80;;;-1.90;99.90;;;;;;5012173;28;20165;-60
2021/04/16 04:46:05;;;;;;;4.60;4.30;;;-1.80;99.90;;;;;;5012262;28;20176;-58
2021/04/16 04:48:31;;;;;;;4.73;4.37;;;-1.80;99.90;;;;;;5011702;28;20259;-59
2021/04/16 04:50:56;;;;;;;4.90;4.53;;;-1.80;99.90;;;;;;5012150;28;20188;-60
2021/04/16 04:53:22;;;;;;;5.00;4.60;;;-1.70;99.90;;;;;;5012147;28;20536;-60
2021/04/16 04:55:47;;;;;;;6.77;4.83;;;-1.80;99.90;;;;;;5015937;28;20169;-60
2021/04/16 04:58:13;;;;;;;5.00;4.60;;;-1.70;99.90;;;;;;5015662;28;20773;-61
2021/04/16 05:00:38;;;;;;;5.60;4.80;;;-1.70;99.90;;;;;;5016438;28;20197;-59
2021/04/16 05:03:04;;;;;;;5.77;5.03;;;-1.70;99.90;;;;;;5015972;28;20708;-60
2021/04/16 05:05:30;;;;;;;5.53;5.03;;;-1.60;99.90;;;;;;5015637;28;20174;-60
2021/04/16 05:07:55;;;;;;;5.07;4.60;;;-1.50;99.90;;;;;;5015790;28;20165;-60
2021/04/16 05:10:21;;;;;;;8.40;6.60;;;-1.50;99.90;;;;;;5015549;28;20192;-61
2021/04/16 05:12:47;;;;;;;8.33;5.70;;;-1.40;99.90;;;;;;5015933;28;20538;-60
2021/04/16 05:15:13;;;;;;;7.25;5.47;;;-1.40;99.90;;;;;;5015922;28;20197;-60
2021/04/16 05:17:39;;;;;;;5.85;5.25;;;-1.30;99.90;;;;;;5015793;28;20188;-60
2021/04/16 05:20:07;;;;;;;5.17;4.67;;;-1.30;99.90;;;;;;5015085;28;20576;-59
2021/04/16 05:22:33;;;;;;;5.57;5.10;;;-1.20;99.90;;;;;;5015533;28;20181;-60
2021/04/16 05:24:58;;;;;;;6.60;6.00;;;-1.20;99.90;;;;;;5015825;28;20227;-60
2021/04/16 05:27:24;;;;;;;6.20;5.60;;;-1.10;99.90;;;;;;5015520;28;20173;-60
2021/04/16 05:29:50;;;;;;;8.57;7.10;;;-1.10;99.90;;;;;;5015012;28;20248;-60
2021/04/16 05:32:15;;;;;;;6.67;5.53;;;-1.00;99.90;;;;;;5015542;28;20212;-60
2021/04/16 05:34:41;;;;;;;7.83;7.03;;;-0.90;99.90;;;;;;5015379;28;20515;-60
2021/04/16 05:37:07;;;;;;;9.93;6.87;;;-0.80;99.90;;;;;;5015651;28;20475;-59
2021/04/16 05:39:33;;;;;;;6.97;6.30;;;-0.70;99.90;;;;;;5014724;28;20199;-59
2021/04/16 05:41:59;;;;;;;8.40;7.10;;;-0.60;99.90;;;;;;5015232;28;20185;-61
2021/04/16 05:44:24;;;;;;;9.27;8.13;;;-0.50;99.90;;;;;;5015000;28;20165;-60
2021/04/16 05:46:51;;;;;;;9.57;8.57;;;-0.40;99.90;;;;;;5015023;28;20914;-60
2021/04/16 05:49:16;;;;;;;11.88;8.93;;;-0.30;99.90;;;;;;5014334;28;20193;-60
2021/04/16 05:51:42;;;;;;;11.33;8.87;;;-0.20;99.90;;;;;;5014960;28;20573;-60
2021/04/16 05:54:08;;;;;;;9.27;8.37;;;-0.10;99.90;;;;;;5014720;28;20168;-60
2021/04/16 05:56:33;;;;;;;8.80;7.95;;;0.00;99.90;;;;;;5014764;28;20169;-60
2021/04/16 05:58:59;;;;;;;10.27;9.27;;;0.10;99.90;;;;;;5014197;28;20696;-59
2021/04/16 06:01:25;;;;;;;9.07;8.17;;;0.10;99.90;;;;;;5014573;28;20200;-61
2021/04/16 06:03:51;;;;;;;10.35;9.20;;;0.10;99.90;;;;;;5014797;28;20638;-60
2021/04/16 06:06:16;;;;;;;10.20;8.90;;;0.20;99.90;;;;;;5013464;28;20255;-60
2021/04/16 06:08:43;;;;;;;8.83;7.93;;;0.30;99.90;;;;;;5013868;28;20173;-61
2021/04/16 06:11:09;;;;;;;9.55;8.65;;;0.30;99.90;;;;;;5014595;28;20173;-61
2021/04/16 06:13:37;;;;;;;12.18;8.57;;;0.40;99.90;;;;;;5014329;28;20179;-60
2021/04/16 06:16:03;;;;;;;9.43;8.50;;;0.40;99.90;;;;;;5014258;28;20242;-59
2021/04/16 06:18:28;;;;;;;11.55;10.35;;;0.40;99.90;;;;;;5013741;28;20592;-60
2021/04/16 06:20:54;;;;;;;10.60;9.60;;;0.50;99.90;;;;;;5013896;28;20205;-61
2021/04/16 06:23:20;;;;;;;10.10;9.10;;;0.60;99.90;;;;;;5014102;28;20169;-61
2021/04/16 06:25:46;;;;;;;10.95;9.85;;;0.60;99.90;;;;;;5014009;28;20212;-61
2021/04/16 06:28:14;;;;;;;10.70;9.80;;;0.80;99.90;;;;;;5013746;28;20584;-61
2021/04/16 06:30:42;;;;;;;10.90;9.80;;;0.90;99.90;;;;;;5013744;28;20236;-61
2021/04/16 06:33:17;;;;;;;9.60;8.90;;;1.10;99.90;;;;;;5014312;28;20185;-62
2021/04/16 06:35:49;;;;;;;8.70;7.90;;;1.20;99.90;;;;;;5013958;28;20257;-61
2021/04/16 06:38:17;;;;;;;10.20;9.35;;;1.30;99.90;;;;;;5013507;28;20192;-60
2021/04/16 06:40:47;;;;;;;16.02;12.10;;;1.40;99.90;;;;;;5013495;28;20214;-60
2021/04/16 06:43:13;;;;;;;13.50;12.25;;;1.50;99.90;;;;;;5013779;28;20174;-60
2021/04/16 06:45:38;;;;;;;11.37;10.33;;;1.60;99.90;;;;;;5013526;28;20547;-61
2021/04/16 06:48:08;;;;;;;15.33;13.77;;;1.70;99.90;;;;;;5013697;28;20167;-60
2021/04/16 06:50:36;;;;;;;22.57;14.27;;;1.90;99.90;;;;;;5013225;28;20660;-61
2021/04/16 06:53:16;;;;;;;24.58;17.10;;;1.90;99.90;;;;;;5013825;28;20890;-61
2021/04/16 06:56:01;;;;;;;25.67;16.33;;;2.10;99.90;;;;;;5013589;28;20254;-61
2021/04/16 06:58:35;;;;;;;18.95;12.90;;;2.20;99.90;;;;;;5013470;28;20594;-62
2021/04/16 07:01:08;;;;;;;14.80;13.30;;;2.40;99.90;;;;;;5013618;28;20697;-61
2021/04/16 07:03:36;;;;;;;10.70;9.40;;;2.50;99.90;;;;;;5013647;28;20405;-61
2021/04/16 07:06:24;;;;;;;9.23;8.32;;;2.60;99.90;;;;;;5013372;28;20919;-62
2021/04/16 07:09:17;;;;;;;10.93;7.27;;;2.80;99.90;;;;;;5012966;28;20294;-61
2021/04/16 07:11:50;;;;;;;6.25;5.50;;;2.90;99.90;;;;;;5013298;28;20422;-61
2021/04/16 07:14:38;;;;;;;5.93;5.43;;;3.10;99.90;;;;;;5013236;28;20177;-60
2021/04/16 07:17:06;;;;;;;7.30;6.10;;;3.20;99.90;;;;;;5013160;28;20750;-61
2021/04/16 07:19:32;;;;;;;8.10;6.00;;;3.30;99.90;;;;;;5012576;28;20508;-61
2021/04/16 07:22:05;;;;;;;6.77;6.07;;;3.40;99.50;;;;;;5012795;28;20952;-61
2021/04/16 07:24:31;;;;;;;5.93;5.43;;;3.60;98.40;;;;;;5012989;28;20396;-61
2021/04/16 07:27:11;;;;;;;6.63;5.90;;;3.70;98.10;;;;;;5012828;28;20404;-61
2021/04/16 07:29:45;;;;;;;6.40;5.80;;;3.80;98.10;;;;;;5012419;28;20423;-61
2021/04/16 07:32:26;;;;;;;13.67;7.53;;;3.90;97.00;;;;;;5013020;28;20854;-60
2021/04/16 07:34:52;;;;;;;8.23;6.33;;;4.10;97.20;;;;;;5012803;28;20503;-61
2021/04/16 07:37:25;;;;;;;7.13;6.43;;;4.20;97.50;;;;;;5012718;28;20861;-61
2021/04/16 07:40:04;;;;;;;7.23;6.47;;;4.40;97.20;;;;;;5012089;28;20441;-61
2021/04/16 07:42:40;;;;;;;8.27;5.63;;;4.50;95.80;;;;;;5012576;28;20427;-61
2021/04/16 07:45:18;;;;;;;5.80;5.20;;;4.60;95.50;;;;;;5012534;28;20404;-61
2021/04/16 07:47:44;;;;;;;5.50;5.00;;;4.70;94.90;;;;;;5012552;28;20403;-61
2021/04/16 07:50:41;;;;;;;5.17;4.73;;;4.70;94.20;;;;;;5012041;28;20428;-60
2021/04/16 07:53:27;;;;;;;6.40;5.80;;;4.80;93.80;;;;;;5012649;28;20407;-61
2021/04/16 07:56:16;;;;;;;6.83;4.63;;;4.80;94.20;;;;;;5012529;28;20408;-61
2021/04/16 07:59:00;;;;;;;6.60;6.07;;;5.00;93.80;;;;;;5012010;28;20404;-61
2021/04/16 08:01:26;;;;;;;5.40;4.37;;;5.10;94.00;;;;;;5012373;28;21038;-61
2021/04/16 08:03:58;;;;;;;4.93;4.53;;;5.30;93.80;;;;;;5012502;28;20432;-62
2021/04/16 08:06:32;;;;;;;5.20;4.70;;;5.40;93.30;;;;;;5011665;28;20204;-62
2021/04/16 08:09:10;;;;;;;5.40;4.90;;;5.50;93.50;;;;;;4991617;28;20409;-62
2021/04/16 08:11:36;;;;;;;6.10;5.27;;;5.70;93.40;;;;;;4992118;28;20472;-62
2021/04/16 08:14:10;;;;;;;5.07;4.63;;;5.80;93.20;;;;;;4992713;28;20414;-62
2021/04/16 08:16:40;;;;;;;6.33;5.83;;;6.00;93.20;;;;;;4992552;28;20492;-61
2021/04/16 08:19:18;;;;;;;5.77;5.27;;;5.90;92.50;;;;;;4991921;28;20425;-62
2021/04/16 08:22:07;;;;;;;6.70;6.10;;;6.00;93.10;;;;;;4992358;28;20457;-61
2021/04/16 08:24:46;;;;;;;6.93;6.43;;;6.10;93.40;;;;;;4988514;28;20417;-61
2021/04/16 08:27:33;;;;;;;8.10;6.17;;;6.30;92.40;;;;;;4992526;28;20405;-61
2021/04/16 08:30:27;;;;;;;7.60;7.00;;;6.40;92.00;;;;;;4997666;28;20921;-61
2021/04/16 08:33:23;;;;;;;12.00;7.20;;;6.50;91.70;;;;;;4998933;28;20963;-61
2021/04/16 08:35:52;;;;;;;9.90;8.20;;;6.50;91.70;;;;;;4999289;28;20401;-61
2021/04/16 08:38:21;;;;;;;7.13;6.63;;;6.60;91.80;;;;;;4998521;28;20408;-61
2021/04/16 08:40:50;;;;;;;8.17;6.97;;;6.80;91.70;;;;;;4998752;28;20468;-61
2021/04/16 08:43:28;;;;;;;7.37;6.70;;;7.00;91.80;;;;;;4998873;28;20397;-61
2021/04/16 08:45:54;;;;;;;7.23;6.53;;;7.30;91.30;;;;;;4998750;28;20400;-62
2021/04/16 08:48:32;;;;;;;10.13;5.60;;;7.60;90.40;;;;;;4998365;28;20458;-61
2021/04/16 08:51:02;;;;;;;16.77;6.90;;;7.70;90.10;;;;;;4998582;28;20435;-61
2021/04/16 08:53:28;;;;;;;6.07;5.03;;;7.90;90.00;;;;;;4998766;28;20500;-62
2021/04/16 08:55:54;;;;;;;7.20;6.50;;;8.00;88.80;;;;;;4998739;28;21004;-61
2021/04/16 08:58:35;;;;;;;5.87;5.47;;;8.10;88.10;;;;;;4998432;28;20194;-61
2021/04/16 09:01:14;;;;;;;4.53;4.13;;;8.20;87.90;;;;;;4998251;28;20453;-62
2021/04/16 09:03:52;;;;;;;4.77;4.37;;;8.20;85.70;;;;;;4998668;28;20437;-61
2021/04/16 09:06:25;;;;;;;4.20;3.90;;;8.40;84.10;;;;;;4998563;28;20409;-62
2021/04/16 09:08:54;;;;;;;4.10;3.80;;;8.50;81.00;;;;;;4998210;28;20493;-61
2021/04/16 09:11:41;;;;;;;4.17;3.97;;;8.50;79.90;;;;;;4998324;28;20489;-61
2021/04/16 09:14:32;;;;;;;4.80;4.40;;;8.50;80.50;;;;;;4999491;28;20490;-62
2021/04/16 09:17:06;;;;;;;3.43;3.20;;;8.70;81.00;;;;;;4995680;28;20421;-62
2021/04/16 09:19:31;;;;;;;4.60;4.30;;;8.70;78.70;;;;;;4997950;28;20988;-62
2021/04/16 09:22:06;;;;;;;5.10;4.70;;;8.70;79.20;;;;;;4998338;28;20453;-62
2021/04/16 09:24:53;;;;;;;4.03;3.80;;;8.80;79.50;;;;;;4998870;28;20222;-62
2021/04/16 09:27:40;;;;;;;3.90;3.60;;;9.10;80.10;;;;;;4998478;28;20455;-61
2021/04/16 09:30:07;;;;;;;4.30;4.10;;;9.10;79.10;;;;;;4997947;28;20431;-62
2021/04/16 09:32:32;;;;;;;4.50;4.20;;;9.00;75.80;;;;;;4998326;28;20407;-62
2021/04/16 09:34:59;;;;;;;3.40;3.20;;;9.00;79.00;;;;;;4998412;28;20424;-62
2021/04/16 09:37:32;;;;;;;4.60;4.20;;;9.00;78.80;;;;;;4998283;28;20641;-62
2021/04/16 09:40:20;;;;;;;4.13;3.70;;;9.20;79.50;;;;;;4996945;28;20436;-62
2021/04/16 09:42:51;;;;;;;4.10;3.77;;;9.50;81.30;;;;;;4995402;28;20514;-62
2021/04/16 09:45:28;;;;;;;4.83;4.53;;;9.60;77.50;;;;;;4995336;28;20396;-61
2021/04/16 09:47:55;;;;;;;5.50;4.90;;;9.50;78.90;;;;;;4995176;28;20392;-62
2021/04/16 09:50:34;;;;;;;4.67;4.27;;;9.50;76.90;;;;;;4994788;28;20421;-62
2021/04/16 09:53:16;;;;;;;5.87;4.50;;;9.50;77.60;;;;;;4994920;28;20411;-61
2021/04/16 09:56:00;;;;;;;5.07;4.57;;;9.30;73.90;;;;;;4995430;28;20404;-62
2021/04/16 09:58:32;;;;;;;4.80;4.50;;;9.40;78.00;;;;;;4994420;28;20462;-62
2021/04/16 10:00:58;;;;;;;7.33;5.00;;;9.60;79.30;;;;;;4994854;28;20467;-62
2021/04/16 10:03:39;;;;;;;6.57;5.60;;;9.80;77.20;;;;;;4994653;28;20408;-62
2021/04/16 10:06:31;;;;;;;4.13;3.83;;;10.10;76.80;;;;;;4994924;28;20405;-62
2021/04/16 10:09:06;;;;;;;14.73;8.60;;;10.40;74.80;;;;;;4994352;28;20401;-61
2021/04/16 10:11:32;;;;;;;10.33;6.27;;;10.50;75.70;;;;;;4994805;28;20433;-62
2021/04/16 10:14:20;;;;;;;12.17;7.83;;;11.00;74.70;;;;;;4994564;28;20443;-62
2021/04/16 10:16:51;;;;;;;5.53;4.80;;;11.30;73.40;;;;;;4991064;28;20417;-62
2021/04/16 10:19:22;;;;;;;4.40;4.00;;;11.80;72.90;;;;;;4994407;28;20427;-62
2021/04/16 10:21:48;;;;;;;3.80;3.50;;;12.00;69.20;;;;;;4994480;28;20449;-62
2021/04/16 10:28:28;;;;;;;5.20;4.70;;;11.30;69.20;;;;;;4994743;28;20412;-62
2021/04/16 12:38:17;;;;;;;8.23;7.30;;;10.00;72.50;;;;;;5011797;28;20407;-61
2021/04/16 12:40:43;;;;;;;12.17;7.20;;;10.20;73.30;;;;;;5011829;28;20521;-61
2021/04/16 12:43:08;;;;;;;7.77;7.17;;;10.30;71.70;;;;;;5012122;28;20420;-62
2021/04/16 12:45:34;;;;;;;7.23;6.67;;;10.40;70.20;;;;;;5011900;28;20169;-62
2021/04/16 12:48:00;;;;;;;7.10;6.50;;;10.40;71.10;;;;;;5012167;28;20174;-62
2021/04/16 12:50:27;;;;;;;6.33;5.73;;;10.60;71.80;;;;;;5011507;28;20204;-63
2021/04/16 12:52:53;;;;;;;7.57;6.93;;;11.10;72.10;;;;;;5011932;28;20586;-62
2021/04/16 12:55:19;;;;;;;7.20;6.70;;;11.60;72.00;;;;;;5011756;28;20461;-62
2021/04/16 12:57:52;;;;;;;7.30;6.80;;;11.80;69.10;;;;;;5012121;28;20503;-62
2021/04/16 13:00:26;;;;;;;7.33;6.83;;;11.80;67.30;;;;;;5011246;28;20519;-62
2021/04/16 13:03:03;;;;;;;7.10;6.50;;;11.70;65.30;;;;;;5011808;28;20451;-62
2021/04/16 13:05:30;;;;;;;7.00;6.40;;;11.40;65.50;;;;;;5011652;28;20458;-62
2021/04/16 13:07:56;;;;;;;8.77;7.87;;;11.00;65.20;;;;;;5011691;28;20406;-62
2021/04/16 13:10:22;;;;;;;8.50;7.80;;;10.90;66.90;;;;;;5011318;28;20436;-62
2021/04/16 13:12:49;;;;;;;7.43;6.90;;;10.70;65.50;;;;;;5012223;28;20185;-62
2021/04/16 13:15:15;;;;;;;9.00;8.30;;;10.50;65.20;;;;;;5012912;28;20420;-63
2021/04/16 13:17:51;;;;;;;8.37;7.67;;;10.30;66.60;;;;;;5015388;28;20408;-62
2021/04/16 13:20:18;;;;;;;8.40;7.70;;;10.10;65.20;;;;;;5014942;28;20466;-62
2021/04/16 13:22:44;;;;;;;8.50;7.80;;;9.90;67.80;;;;;;5015276;28;20423;-62
2021/04/16 13:25:14;;;;;;;8.13;7.53;;;9.80;68.30;;;;;;5015105;28;20931;-63
2021/04/16 13:27:39;;;;;;;9.60;8.70;;;9.70;69.60;;;;;;5015062;28;20474;-62
2021/04/16 13:30:07;;;;;;;8.07;7.37;;;9.90;69.80;;;;;;5014598;28;20428;-62
2021/04/16 13:32:44;;;;;;;9.67;7.70;;;10.00;69.80;;;;;;5015046;28;20173;-62
2021/04/16 13:35:13;;;;;;;8.20;7.50;;;10.00;69.00;;;;;;5015081;28;20850;-62
2021/04/16 13:37:39;;;;;;;7.90;7.20;;;10.10;68.70;;;;;;5015023;28;20478;-62
2021/04/16 13:40:06;;;;;;;6.83;6.33;;;10.30;67.60;;;;;;5014308;28;20428;-61
2021/04/16 13:42:31;;;;;;;7.20;6.70;;;10.30;66.80;;;;;;5014736;28;20188;-62
2021/04/16 13:44:57;;;;;;;8.07;7.50;;;10.40;66.70;;;;;;5014796;28;20956;-62
2021/04/16 13:47:25;;;;;;;6.70;6.10;;;10.30;65.80;;;;;;5014884;28;20172;-62
2021/04/16 13:49:55;;;;;;;6.83;6.33;;;10.40;68.00;;;;;;5014265;28;20182;-62
2021/04/16 13:52:20;;;;;;;7.10;6.50;;;10.40;65.40;;;;;;5014843;28;20835;-62
2021/04/16 13:54:48;;;;;;;8.40;7.80;;;10.50;67.20;;;;;;5014534;28;20435;-62
2021/04/16 13:57:16;;;;;;;8.00;7.30;;;10.40;67.30;;;;;;5014538;28;20244;-62
2021/04/16 13:59:42;;;;;;;7.30;6.80;;;10.30;64.50;;;;;;5014459;28;20440;-62
2021/04/16 14:02:10;;;;;;;7.67;6.97;;;10.30;65.40;;;;;;5014550;28;20467;-62
2021/04/16 14:04:41;;;;;;;9.67;7.47;;;10.30;63.90;;;;;;5014456;28;20411;-62
2021/04/16 14:07:06;;;;;;;6.87;6.27;;;10.30;66.30;;;;;;5014531;28;20404;-61
2021/04/16 14:09:33;;;;;;;6.00;5.60;;;10.30;65.10;;;;;;5013832;28;20432;-62
2021/04/16 14:11:59;;;;;;;5.73;5.23;;;10.20;65.60;;;;;;5014277;28;20655;-62
2021/04/16 14:14:27;;;;;;;5.20;4.80;;;10.20;64.90;;;;;;5014352;28;20444;-62
2021/04/16 14:17:04;;;;;;;4.20;4.00;;;10.30;63.60;;;;;;5013110;28;20661;-63
2021/04/16 14:20:00;;;;;;;4.67;4.30;;;10.30;65.30;;;;;;5013916;28;20516;-62
2021/04/16 14:22:32;;;;;;;4.13;3.83;;;10.80;65.90;;;;;;5014435;28;20427;-63
2021/04/16 14:24:58;;;;;;;4.17;3.90;;;11.50;65.40;;;;;;5014056;28;20438;-63
2021/04/16 14:27:24;;;;;;;4.80;4.47;;;11.90;63.50;;;;;;5013256;28;20891;-62
2021/04/16 14:29:50;;;;;;;5.30;4.90;;;12.10;61.90;;;;;;5013668;28;20188;-62
2021/04/16 14:32:17;;;;;;;5.33;4.37;;;12.00;59.60;;;;;;5013833;28;20770;-62
2021/04/16 14:34:42;;;;;;;4.53;4.23;;;11.80;59.40;;;;;;5014035;28;20394;-62
2021/04/16 14:37:08;;;;;;;4.33;3.90;;;11.70;59.70;;;;;;5013715;28;20403;-62
2021/04/16 14:39:34;;;;;;;4.47;3.90;;;11.50;60.20;;;;;;5013394;28;20276;-62
2021/04/16 14:42:00;;;;;;;5.83;5.33;;;11.30;59.90;;;;;;5013486;28;20217;-62
2021/04/16 14:44:27;;;;;;;4.17;3.87;;;11.20;58.90;;;;;;5013999;28;20170;-63
2021/04/16 14:46:54;;;;;;;4.30;4.00;;;11.00;58.60;;;;;;5013995;28;20416;-62
2021/04/16 14:49:31;;;;;;;3.93;3.63;;;10.90;59.00;;;;;;5013544;28;20820;-62
2021/04/16 14:51:59;;;;;;;5.17;4.87;;;10.90;59.70;;;;;;5013747;28;20418;-61
2021/04/16 14:54:38;;;;;;;4.60;4.20;;;10.90;60.00;;;;;;5013611;28;20997;-63
2021/04/16 14:57:07;;;;;;;6.07;5.40;;;11.50;60.20;;;;;;5013773;28;20411;-64
2021/04/16 14:59:41;;;;;;;9.60;6.10;;;12.20;61.60;;;;;;5013081;28;20497;-62
2021/04/16 15:02:08;;;;;;;16.33;9.63;;;12.10;58.40;;;;;;5013383;28;20458;-63
2021/04/16 15:04:33;;;;;;;5.87;5.40;;;11.90;59.00;;;;;;5013481;28;20407;-62
2021/04/16 15:07:02;;;;;;;11.20;8.37;;;11.60;57.10;;;;;;5013188;28;20405;-63
2021/04/16 15:09:40;;;;;;;16.03;9.30;;;11.40;58.50;;;;;;5012859;28;20488;-62
2021/04/16 15:12:06;;;;;;;22.03;13.67;;;11.10;58.70;;;;;;5013314;28;20423;-62